sensor_id;sensor_type;location;lat;lon;timestamp;temperature;humidity
81337;DHT22;70799;48.000;10.584;2023-07-31T00:01:34;17.20;74.00
81337;DHT22;70799;48.000;10.584;2023-07-31T00:04:08;17.30;74.30
81337;DHT22;70799;48.000;10.584;2023-07-31T00:06:42;17.10;74.50
81337;DHT22;70799;48.000;10.584;2023-07-31T00:09:15;17.10;74.40
81337;DHT22;70799;48.000;10.584;2023-07-31T00:11:48;17.00;74.50
81337;DHT22;70799;48.000;10.584;2023-07-31T00:14:22;16.90;74.40
81337;DHT22;70799;48.000;10.584;2023-07-31T00:16:55;16.90;74.50
81337;DHT22;70799;48.000;10.584;2023-07-31T00:19:28;16.90;74.60
81337;DHT22;70799;48.000;10.584;2023-07-31T00:22:01;16.80;74.70
81337;DHT22;70799;48.000;10.584;2023-07-31T00:24:35;16.70;74.80
81337;DHT22;70799;48.000;10.584;2023-07-31T00:27:09;16.70;74.90
81337;DHT22;70799;48.000;10.584;2023-07-31T00:29:43;16.70;75.00
81337;DHT22;70799;48.000;10.584;2023-07-31T00:32:16;16.70;75.00
81337;DHT22;70799;48.000;10.584;2023-07-31T00:34:50;16.70;75.20
81337;DHT22;70799;48.000;10.584;2023-07-31T00:37:23;16.70;75.20
81337;DHT22;70799;48.000;10.584;2023-07-31T00:39:57;16.70;75.20
81337;DHT22;70799;48.000;10.584;2023-07-31T00:42:31;16.60;75.30
81337;DHT22;70799;48.000;10.584;2023-07-31T00:45:05;16.60;75.20
81337;DHT22;70799;48.000;10.584;2023-07-31T00:47:39;16.60;75.10
81337;DHT22;70799;48.000;10.584;2023-07-31T00:50:17;16.50;75.20
81337;DHT22;70799;48.000;10.584;2023-07-31T00:52:50;16.40;75.50
81337;DHT22;70799;48.000;10.584;2023-07-31T00:55:23;16.40;75.90
81337;DHT22;70799;48.000;10.584;2023-07-31T00:58:04;16.50;75.60
81337;DHT22;70799;48.000;10.584;2023-07-31T01:00:37;16.40;75.60
81337;DHT22;70799;48.000;10.584;2023-07-31T01:03:11;16.50;75.70
81337;DHT22;70799;48.000;10.584;2023-07-31T01:08:59;16.60;75.60
81337;DHT22;70799;48.000;10.584;2023-07-31T01:11:43;16.50;75.90
81337;DHT22;70799;48.000;10.584;2023-07-31T01:14:20;16.50;75.90
81337;DHT22;70799;48.000;10.584;2023-07-31T01:16:54;16.50;75.70
81337;DHT22;70799;48.000;10.584;2023-07-31T01:19:28;16.60;75.80
81337;DHT22;70799;48.000;10.584;2023-07-31T01:25:16;16.60;76.00
81337;DHT22;70799;48.000;10.584;2023-07-31T01:28:05;16.60;76.20
81337;DHT22;70799;48.000;10.584;2023-07-31T01:30:46;16.60;76.00
81337;DHT22;70799;48.000;10.584;2023-07-31T01:33:20;16.70;76.10
81337;DHT22;70799;48.000;10.584;2023-07-31T01:35:54;16.60;76.10
81337;DHT22;70799;48.000;10.584;2023-07-31T01:38:29;16.60;76.00
81337;DHT22;70799;48.000;10.584;2023-07-31T01:41:02;16.70;75.70
81337;DHT22;70799;48.000;10.584;2023-07-31T01:43:36;16.70;75.60
81337;DHT22;70799;48.000;10.584;2023-07-31T01:46:09;16.60;75.50
81337;DHT22;70799;48.000;10.584;2023-07-31T01:48:43;16.60;75.40
81337;DHT22;70799;48.000;10.584;2023-07-31T01:51:16;16.70;75.60
81337;DHT22;70799;48.000;10.584;2023-07-31T01:54:01;16.60;75.80
81337;DHT22;70799;48.000;10.584;2023-07-31T01:56:37;16.60;75.60
81337;DHT22;70799;48.000;10.584;2023-07-31T01:59:11;16.60;75.80
81337;DHT22;70799;48.000;10.584;2023-07-31T02:01:44;16.50;76.30
81337;DHT22;70799;48.000;10.584;2023-07-31T02:04:22;16.50;76.10
81337;DHT22;70799;48.000;10.584;2023-07-31T02:06:55;16.40;76.20
81337;DHT22;70799;48.000;10.584;2023-07-31T02:09:28;16.40;75.90
81337;DHT22;70799;48.000;10.584;2023-07-31T02:12:03;16.40;76.20
81337;DHT22;70799;48.000;10.584;2023-07-31T02:14:37;16.40;76.50
81337;DHT22;70799;48.000;10.584;2023-07-31T02:17:10;16.40;76.40
81337;DHT22;70799;48.000;10.584;2023-07-31T02:19:43;16.30;76.80
81337;DHT22;70799;48.000;10.584;2023-07-31T02:22:17;16.30;76.90
81337;DHT22;70799;48.000;10.584;2023-07-31T02:24:51;16.30;77.00
81337;DHT22;70799;48.000;10.584;2023-07-31T02:27:26;16.30;77.20
81337;DHT22;70799;48.000;10.584;2023-07-31T02:30:00;16.30;77.20
81337;DHT22;70799;48.000;10.584;2023-07-31T02:32:35;16.30;76.80
81337;DHT22;70799;48.000;10.584;2023-07-31T02:35:09;16.30;76.90
81337;DHT22;70799;48.000;10.584;2023-07-31T02:37:43;16.30;76.80
81337;DHT22;70799;48.000;10.584;2023-07-31T02:40:16;16.30;76.90
81337;DHT22;70799;48.000;10.584;2023-07-31T02:42:50;16.20;77.00
81337;DHT22;70799;48.000;10.584;2023-07-31T02:45:23;16.20;76.80
81337;DHT22;70799;48.000;10.584;2023-07-31T02:47:57;16.20;76.80
81337;DHT22;70799;48.000;10.584;2023-07-31T02:50:30;16.10;77.10
81337;DHT22;70799;48.000;10.584;2023-07-31T02:53:11;16.00;77.20
81337;DHT22;70799;48.000;10.584;2023-07-31T02:55:45;16.10;77.50
81337;DHT22;70799;48.000;10.584;2023-07-31T02:58:18;16.00;77.70
81337;DHT22;70799;48.000;10.584;2023-07-31T03:00:52;16.00;77.50
81337;DHT22;70799;48.000;10.584;2023-07-31T03:03:29;16.00;77.40
81337;DHT22;70799;48.000;10.584;2023-07-31T03:06:02;16.10;77.30
81337;DHT22;70799;48.000;10.584;2023-07-31T03:08:35;16.20;77.30
81337;DHT22;70799;48.000;10.584;2023-07-31T03:11:08;16.20;77.30
81337;DHT22;70799;48.000;10.584;2023-07-31T03:13:42;16.20;77.20
81337;DHT22;70799;48.000;10.584;2023-07-31T03:16:15;16.20;77.30
81337;DHT22;70799;48.000;10.584;2023-07-31T03:18:49;16.20;77.20
81337;DHT22;70799;48.000;10.584;2023-07-31T03:21:28;16.30;77.10
81337;DHT22;70799;48.000;10.584;2023-07-31T03:24:02;16.40;77.00
81337;DHT22;70799;48.000;10.584;2023-07-31T03:26:35;16.50;76.60
81337;DHT22;70799;48.000;10.584;2023-07-31T03:29:09;16.70;76.70
81337;DHT22;70799;48.000;10.584;2023-07-31T03:31:43;16.70;76.30
81337;DHT22;70799;48.000;10.584;2023-07-31T03:34:18;16.80;75.80
81337;DHT22;70799;48.000;10.584;2023-07-31T03:36:51;16.80;76.00
81337;DHT22;70799;48.000;10.584;2023-07-31T03:39:27;16.90;75.60
81337;DHT22;70799;48.000;10.584;2023-07-31T03:42:04;17.00;75.20
81337;DHT22;70799;48.000;10.584;2023-07-31T03:44:37;17.00;75.20
81337;DHT22;70799;48.000;10.584;2023-07-31T03:47:11;17.10;75.00
81337;DHT22;70799;48.000;10.584;2023-07-31T03:49:44;17.30;74.90
81337;DHT22;70799;48.000;10.584;2023-07-31T03:52:20;17.30;74.70
81337;DHT22;70799;48.000;10.584;2023-07-31T03:54:56;17.40;74.60
81337;DHT22;70799;48.000;10.584;2023-07-31T03:57:42;17.50;74.70
81337;DHT22;70799;48.000;10.584;2023-07-31T04:00:15;17.50;74.50
81337;DHT22;70799;48.000;10.584;2023-07-31T04:02:52;17.60;74.40
81337;DHT22;70799;48.000;10.584;2023-07-31T04:05:26;17.60;74.40
81337;DHT22;70799;48.000;10.584;2023-07-31T04:08:04;17.70;74.70
81337;DHT22;70799;48.000;10.584;2023-07-31T04:10:38;17.70;74.30
81337;DHT22;70799;48.000;10.584;2023-07-31T04:13:11;17.70;74.30
81337;DHT22;70799;48.000;10.584;2023-07-31T04:15:50;17.90;74.30
81337;DHT22;70799;48.000;10.584;2023-07-31T04:18:26;17.90;74.00
81337;DHT22;70799;48.000;10.584;2023-07-31T04:21:06;17.90;74.00
81337;DHT22;70799;48.000;10.584;2023-07-31T04:23:40;18.10;74.10
81337;DHT22;70799;48.000;10.584;2023-07-31T04:26:21;18.10;74.20
81337;DHT22;70799;48.000;10.584;2023-07-31T04:29:03;18.20;72.50
81337;DHT22;70799;48.000;10.584;2023-07-31T04:31:36;18.30;71.70
81337;DHT22;70799;48.000;10.584;2023-07-31T04:34:10;18.30;72.10
81337;DHT22;70799;48.000;10.584;2023-07-31T04:36:46;18.30;72.30
81337;DHT22;70799;48.000;10.584;2023-07-31T04:39:20;18.30;72.20
81337;DHT22;70799;48.000;10.584;2023-07-31T04:41:53;18.40;72.00
81337;DHT22;70799;48.000;10.584;2023-07-31T04:44:26;18.50;71.50
81337;DHT22;70799;48.000;10.584;2023-07-31T04:47:00;18.50;71.10
81337;DHT22;70799;48.000;10.584;2023-07-31T04:49:35;18.50;71.20
81337;DHT22;70799;48.000;10.584;2023-07-31T04:52:12;18.50;71.80
81337;DHT22;70799;48.000;10.584;2023-07-31T04:54:45;18.70;71.80
81337;DHT22;70799;48.000;10.584;2023-07-31T04:57:19;18.60;71.50
81337;DHT22;70799;48.000;10.584;2023-07-31T04:59:52;18.70;71.50
81337;DHT22;70799;48.000;10.584;2023-07-31T05:02:25;18.80;71.50
81337;DHT22;70799;48.000;10.584;2023-07-31T05:04:58;18.90;71.30
81337;DHT22;70799;48.000;10.584;2023-07-31T05:07:32;18.90;71.60
81337;DHT22;70799;48.000;10.584;2023-07-31T05:10:09;18.90;71.50
81337;DHT22;70799;48.000;10.584;2023-07-31T05:12:46;19.00;70.80
81337;DHT22;70799;48.000;10.584;2023-07-31T05:15:23;19.00;71.40
81337;DHT22;70799;48.000;10.584;2023-07-31T05:18:05;19.10;71.00
81337;DHT22;70799;48.000;10.584;2023-07-31T05:20:38;19.10;71.10
81337;DHT22;70799;48.000;10.584;2023-07-31T05:23:11;19.10;71.60
81337;DHT22;70799;48.000;10.584;2023-07-31T05:25:46;19.20;71.40
81337;DHT22;70799;48.000;10.584;2023-07-31T05:28:21;19.20;70.60
81337;DHT22;70799;48.000;10.584;2023-07-31T05:30:59;19.10;70.60
81337;DHT22;70799;48.000;10.584;2023-07-31T05:33:33;19.10;71.20
81337;DHT22;70799;48.000;10.584;2023-07-31T05:36:08;19.00;71.40
81337;DHT22;70799;48.000;10.584;2023-07-31T05:38:41;19.10;71.20
81337;DHT22;70799;48.000;10.584;2023-07-31T05:41:16;19.10;71.10
81337;DHT22;70799;48.000;10.584;2023-07-31T05:43:50;19.00;71.20
81337;DHT22;70799;48.000;10.584;2023-07-31T05:46:23;19.00;71.30
81337;DHT22;70799;48.000;10.584;2023-07-31T05:48:57;19.00;71.20
81337;DHT22;70799;48.000;10.584;2023-07-31T05:51:35;19.10;71.10
81337;DHT22;70799;48.000;10.584;2023-07-31T05:54:12;19.00;71.00
81337;DHT22;70799;48.000;10.584;2023-07-31T05:56:45;19.10;71.30
81337;DHT22;70799;48.000;10.584;2023-07-31T05:59:19;19.20;70.90
81337;DHT22;70799;48.000;10.584;2023-07-31T06:01:53;19.30;70.80
81337;DHT22;70799;48.000;10.584;2023-07-31T06:04:26;19.30;71.10
81337;DHT22;70799;48.000;10.584;2023-07-31T06:07:00;19.50;70.30
81337;DHT22;70799;48.000;10.584;2023-07-31T06:09:36;19.40;70.10
81337;DHT22;70799;48.000;10.584;2023-07-31T06:12:10;19.50;69.80
81337;DHT22;70799;48.000;10.584;2023-07-31T06:14:43;19.50;69.50
81337;DHT22;70799;48.000;10.584;2023-07-31T06:17:16;19.50;70.20
81337;DHT22;70799;48.000;10.584;2023-07-31T06:19:53;19.50;69.90
81337;DHT22;70799;48.000;10.584;2023-07-31T06:22:26;19.60;69.20
81337;DHT22;70799;48.000;10.584;2023-07-31T06:25:02;19.70;69.30
81337;DHT22;70799;48.000;10.584;2023-07-31T06:27:38;19.70;69.70
81337;DHT22;70799;48.000;10.584;2023-07-31T06:30:11;19.80;69.10
81337;DHT22;70799;48.000;10.584;2023-07-31T06:32:47;19.90;69.00
81337;DHT22;70799;48.000;10.584;2023-07-31T06:35:24;20.00;68.40
81337;DHT22;70799;48.000;10.584;2023-07-31T06:37:58;20.10;68.70
81337;DHT22;70799;48.000;10.584;2023-07-31T06:40:45;20.20;68.20
81337;DHT22;70799;48.000;10.584;2023-07-31T06:43:19;20.20;67.60
81337;DHT22;70799;48.000;10.584;2023-07-31T06:45:56;20.20;67.80
81337;DHT22;70799;48.000;10.584;2023-07-31T06:48:33;20.30;68.00
81337;DHT22;70799;48.000;10.584;2023-07-31T06:51:41;20.40;66.70
81337;DHT22;70799;48.000;10.584;2023-07-31T06:54:16;20.40;67.40
81337;DHT22;70799;48.000;10.584;2023-07-31T06:56:49;20.50;67.70
81337;DHT22;70799;48.000;10.584;2023-07-31T06:59:22;20.80;67.30
81337;DHT22;70799;48.000;10.584;2023-07-31T07:01:58;21.10;65.00
81337;DHT22;70799;48.000;10.584;2023-07-31T07:04:40;21.10;64.20
81337;DHT22;70799;48.000;10.584;2023-07-31T07:07:17;21.20;64.00
81337;DHT22;70799;48.000;10.584;2023-07-31T07:09:52;21.40;62.60
81337;DHT22;70799;48.000;10.584;2023-07-31T07:12:33;21.40;63.40
81337;DHT22;70799;48.000;10.584;2023-07-31T07:15:11;21.40;62.90
81337;DHT22;70799;48.000;10.584;2023-07-31T07:17:45;21.60;61.20
81337;DHT22;70799;48.000;10.584;2023-07-31T07:20:19;21.80;62.60
81337;DHT22;70799;48.000;10.584;2023-07-31T07:22:56;22.00;60.30
81337;DHT22;70799;48.000;10.584;2023-07-31T07:25:41;22.30;61.50
81337;DHT22;70799;48.000;10.584;2023-07-31T07:28:20;22.50;59.40
81337;DHT22;70799;48.000;10.584;2023-07-31T07:30:53;22.60;60.10
81337;DHT22;70799;48.000;10.584;2023-07-31T07:33:27;22.60;59.70
81337;DHT22;70799;48.000;10.584;2023-07-31T07:36:01;22.50;58.00
81337;DHT22;70799;48.000;10.584;2023-07-31T07:38:41;22.30;59.00
81337;DHT22;70799;48.000;10.584;2023-07-31T07:41:16;22.20;57.80
81337;DHT22;70799;48.000;10.584;2023-07-31T07:43:50;22.00;58.70
81337;DHT22;70799;48.000;10.584;2023-07-31T07:46:24;22.00;57.80
81337;DHT22;70799;48.000;10.584;2023-07-31T07:49:00;21.80;58.50
81337;DHT22;70799;48.000;10.584;2023-07-31T07:52:02;21.70;59.10
81337;DHT22;70799;48.000;10.584;2023-07-31T07:54:41;21.70;59.30
81337;DHT22;70799;48.000;10.584;2023-07-31T07:57:15;21.60;59.20
81337;DHT22;70799;48.000;10.584;2023-07-31T07:59:49;21.70;58.80
81337;DHT22;70799;48.000;10.584;2023-07-31T08:02:42;21.60;59.40
81337;DHT22;70799;48.000;10.584;2023-07-31T08:05:19;21.50;59.20
81337;DHT22;70799;48.000;10.584;2023-07-31T08:07:53;21.50;60.50
81337;DHT22;70799;48.000;10.584;2023-07-31T08:10:35;21.60;59.90
81337;DHT22;70799;48.000;10.584;2023-07-31T08:13:14;21.60;59.20
81337;DHT22;70799;48.000;10.584;2023-07-31T08:15:48;21.60;59.10
81337;DHT22;70799;48.000;10.584;2023-07-31T08:18:32;21.50;59.80
81337;DHT22;70799;48.000;10.584;2023-07-31T08:21:06;21.50;60.20
81337;DHT22;70799;48.000;10.584;2023-07-31T08:23:41;21.40;59.60
81337;DHT22;70799;48.000;10.584;2023-07-31T08:26:18;21.50;58.80
81337;DHT22;70799;48.000;10.584;2023-07-31T08:29:09;21.40;59.90
81337;DHT22;70799;48.000;10.584;2023-07-31T08:32:03;21.50;59.30
81337;DHT22;70799;48.000;10.584;2023-07-31T08:34:36;21.60;60.10
81337;DHT22;70799;48.000;10.584;2023-07-31T08:37:16;21.70;59.50
81337;DHT22;70799;48.000;10.584;2023-07-31T08:39:55;21.70;58.70
81337;DHT22;70799;48.000;10.584;2023-07-31T08:42:45;21.80;58.40
81337;DHT22;70799;48.000;10.584;2023-07-31T08:45:28;21.80;57.80
81337;DHT22;70799;48.000;10.584;2023-07-31T08:48:12;21.80;56.90
81337;DHT22;70799;48.000;10.584;2023-07-31T08:50:48;22.00;57.80
81337;DHT22;70799;48.000;10.584;2023-07-31T08:53:29;22.10;57.80
81337;DHT22;70799;48.000;10.584;2023-07-31T08:56:06;22.30;58.10
81337;DHT22;70799;48.000;10.584;2023-07-31T08:59:03;22.80;57.10
81337;DHT22;70799;48.000;10.584;2023-07-31T09:01:48;23.10;54.10
81337;DHT22;70799;48.000;10.584;2023-07-31T09:04:24;23.40;55.70
81337;DHT22;70799;48.000;10.584;2023-07-31T09:07:02;23.60;54.90
81337;DHT22;70799;48.000;10.584;2023-07-31T09:09:37;23.80;54.20
81337;DHT22;70799;48.000;10.584;2023-07-31T09:12:12;23.80;54.60
81337;DHT22;70799;48.000;10.584;2023-07-31T09:14:46;24.10;54.60
81337;DHT22;70799;48.000;10.584;2023-07-31T09:17:33;24.60;54.90
81337;DHT22;70799;48.000;10.584;2023-07-31T09:20:22;24.70;51.80
81337;DHT22;70799;48.000;10.584;2023-07-31T09:23:12;24.50;52.40
81337;DHT22;70799;48.000;10.584;2023-07-31T09:25:50;24.30;52.60
81337;DHT22;70799;48.000;10.584;2023-07-31T09:28:31;24.20;52.50
81337;DHT22;70799;48.000;10.584;2023-07-31T09:31:11;24.20;54.10
81337;DHT22;70799;48.000;10.584;2023-07-31T09:33:56;24.40;54.00
81337;DHT22;70799;48.000;10.584;2023-07-31T09:36:47;24.50;52.10
81337;DHT22;70799;48.000;10.584;2023-07-31T09:39:30;24.50;52.50
81337;DHT22;70799;48.000;10.584;2023-07-31T09:42:25;24.60;54.10
81337;DHT22;70799;48.000;10.584;2023-07-31T09:45:12;24.80;51.80
81337;DHT22;70799;48.000;10.584;2023-07-31T09:48:11;24.80;52.20
81337;DHT22;70799;48.000;10.584;2023-07-31T09:50:52;25.00;52.90
81337;DHT22;70799;48.000;10.584;2023-07-31T09:53:32;25.00;52.10
81337;DHT22;70799;48.000;10.584;2023-07-31T09:56:06;24.80;52.90
81337;DHT22;70799;48.000;10.584;2023-07-31T09:58:44;24.80;52.90
81337;DHT22;70799;48.000;10.584;2023-07-31T10:01:21;24.80;53.00
81337;DHT22;70799;48.000;10.584;2023-07-31T10:03:55;24.80;53.10
81337;DHT22;70799;48.000;10.584;2023-07-31T10:06:37;24.90;53.30
81337;DHT22;70799;48.000;10.584;2023-07-31T10:09:16;24.80;52.80
81337;DHT22;70799;48.000;10.584;2023-07-31T10:12:00;24.80;52.50
81337;DHT22;70799;48.000;10.584;2023-07-31T10:14:35;24.90;51.80
81337;DHT22;70799;48.000;10.584;2023-07-31T10:17:11;24.80;52.60
81337;DHT22;70799;48.000;10.584;2023-07-31T10:19:51;25.00;53.40
81337;DHT22;70799;48.000;10.584;2023-07-31T10:22:32;25.10;51.90
81337;DHT22;70799;48.000;10.584;2023-07-31T10:25:11;24.80;51.50
81337;DHT22;70799;48.000;10.584;2023-07-31T10:27:53;24.60;53.00
81337;DHT22;70799;48.000;10.584;2023-07-31T10:30:34;24.80;53.00
81337;DHT22;70799;48.000;10.584;2023-07-31T10:33:11;24.90;50.10
81337;DHT22;70799;48.000;10.584;2023-07-31T10:35:47;24.90;51.10
81337;DHT22;70799;48.000;10.584;2023-07-31T10:38:27;24.80;51.00
81337;DHT22;70799;48.000;10.584;2023-07-31T10:41:11;24.90;50.80
81337;DHT22;70799;48.000;10.584;2023-07-31T10:43:56;25.10;51.30
81337;DHT22;70799;48.000;10.584;2023-07-31T10:46:46;25.30;50.50
81337;DHT22;70799;48.000;10.584;2023-07-31T10:49:21;25.50;50.40
81337;DHT22;70799;48.000;10.584;2023-07-31T10:52:03;25.70;51.00
81337;DHT22;70799;48.000;10.584;2023-07-31T10:54:41;26.20;50.50
81337;DHT22;70799;48.000;10.584;2023-07-31T10:57:34;26.50;47.80
81337;DHT22;70799;48.000;10.584;2023-07-31T11:00:29;26.70;48.80
81337;DHT22;70799;48.000;10.584;2023-07-31T11:05:54;27.10;46.80
81337;DHT22;70799;48.000;10.584;2023-07-31T11:08:46;27.20;48.00
81337;DHT22;70799;48.000;10.584;2023-07-31T11:11:23;27.40;47.50
81337;DHT22;70799;48.000;10.584;2023-07-31T11:14:00;27.70;47.00
81337;DHT22;70799;48.000;10.584;2023-07-31T11:16:34;27.80;46.00
81337;DHT22;70799;48.000;10.584;2023-07-31T11:19:12;27.90;46.40
81337;DHT22;70799;48.000;10.584;2023-07-31T11:21:46;27.80;43.80
81337;DHT22;70799;48.000;10.584;2023-07-31T11:24:21;27.70;44.40
81337;DHT22;70799;48.000;10.584;2023-07-31T11:26:54;27.80;45.00
81337;DHT22;70799;48.000;10.584;2023-07-31T11:29:28;28.00;45.50
81337;DHT22;70799;48.000;10.584;2023-07-31T11:32:02;27.90;44.00
81337;DHT22;70799;48.000;10.584;2023-07-31T11:34:53;27.90;45.70
81337;DHT22;70799;48.000;10.584;2023-07-31T11:37:43;27.90;43.90
81337;DHT22;70799;48.000;10.584;2023-07-31T11:40:18;28.00;45.40
81337;DHT22;70799;48.000;10.584;2023-07-31T11:43:04;28.40;44.40
81337;DHT22;70799;48.000;10.584;2023-07-31T11:45:38;28.70;44.30
81337;DHT22;70799;48.000;10.584;2023-07-31T11:48:22;28.90;44.10
81337;DHT22;70799;48.000;10.584;2023-07-31T11:51:05;29.00;44.40
81337;DHT22;70799;48.000;10.584;2023-07-31T11:53:48;29.30;42.20
81337;DHT22;70799;48.000;10.584;2023-07-31T11:56:27;29.20;41.70
81337;DHT22;70799;48.000;10.584;2023-07-31T11:59:07;29.10;41.80
81337;DHT22;70799;48.000;10.584;2023-07-31T12:01:43;29.10;43.90
81337;DHT22;70799;48.000;10.584;2023-07-31T12:04:17;29.10;43.00
81337;DHT22;70799;48.000;10.584;2023-07-31T12:06:57;29.40;43.50
81337;DHT22;70799;48.000;10.584;2023-07-31T12:09:33;29.50;42.50
81337;DHT22;70799;48.000;10.584;2023-07-31T12:12:20;29.40;42.20
81337;DHT22;70799;48.000;10.584;2023-07-31T12:14:56;29.10;42.30
81337;DHT22;70799;48.000;10.584;2023-07-31T12:17:33;28.90;43.20
81337;DHT22;70799;48.000;10.584;2023-07-31T12:20:07;28.80;43.50
81337;DHT22;70799;48.000;10.584;2023-07-31T12:22:44;28.80;43.50
81337;DHT22;70799;48.000;10.584;2023-07-31T12:25:18;28.70;42.40
81337;DHT22;70799;48.000;10.584;2023-07-31T12:27:58;28.50;43.40
81337;DHT22;70799;48.000;10.584;2023-07-31T12:30:35;28.10;42.90
81337;DHT22;70799;48.000;10.584;2023-07-31T12:33:14;27.80;43.40
81337;DHT22;70799;48.000;10.584;2023-07-31T12:35:47;27.80;43.60
81337;DHT22;70799;48.000;10.584;2023-07-31T12:38:22;28.00;44.10
81337;DHT22;70799;48.000;10.584;2023-07-31T12:40:55;27.80;43.30
81337;DHT22;70799;48.000;10.584;2023-07-31T12:43:32;27.80;42.90
81337;DHT22;70799;48.000;10.584;2023-07-31T12:46:06;27.80;43.10
81337;DHT22;70799;48.000;10.584;2023-07-31T12:48:40;27.80;43.00
81337;DHT22;70799;48.000;10.584;2023-07-31T12:51:14;27.70;43.70
81337;DHT22;70799;48.000;10.584;2023-07-31T12:53:47;27.60;44.30
81337;DHT22;70799;48.000;10.584;2023-07-31T12:56:21;27.60;43.70
81337;DHT22;70799;48.000;10.584;2023-07-31T12:58:55;27.60;44.20
81337;DHT22;70799;48.000;10.584;2023-07-31T13:01:33;27.70;44.00
81337;DHT22;70799;48.000;10.584;2023-07-31T13:04:07;27.70;44.60
81337;DHT22;70799;48.000;10.584;2023-07-31T13:06:41;27.90;44.00
81337;DHT22;70799;48.000;10.584;2023-07-31T13:09:16;28.10;44.90
81337;DHT22;70799;48.000;10.584;2023-07-31T13:11:50;28.30;41.20
81337;DHT22;70799;48.000;10.584;2023-07-31T13:14:23;28.10;43.40
81337;DHT22;70799;48.000;10.584;2023-07-31T13:16:56;28.10;43.70
81337;DHT22;70799;48.000;10.584;2023-07-31T13:19:37;28.10;43.70
81337;DHT22;70799;48.000;10.584;2023-07-31T13:22:23;28.00;42.90
81337;DHT22;70799;48.000;10.584;2023-07-31T13:24:56;28.00;42.00
81337;DHT22;70799;48.000;10.584;2023-07-31T13:27:30;27.80;41.30
81337;DHT22;70799;48.000;10.584;2023-07-31T13:30:03;27.50;42.40
81337;DHT22;70799;48.000;10.584;2023-07-31T13:32:37;27.40;43.60
81337;DHT22;70799;48.000;10.584;2023-07-31T13:35:13;27.50;44.10
81337;DHT22;70799;48.000;10.584;2023-07-31T13:37:52;27.90;44.30
81337;DHT22;70799;48.000;10.584;2023-07-31T13:40:26;28.30;43.40
81337;DHT22;70799;48.000;10.584;2023-07-31T13:42:59;28.30;42.30
81337;DHT22;70799;48.000;10.584;2023-07-31T13:45:44;28.00;42.80
81337;DHT22;70799;48.000;10.584;2023-07-31T13:48:17;27.90;41.90
81337;DHT22;70799;48.000;10.584;2023-07-31T13:50:51;28.00;41.80
81337;DHT22;70799;48.000;10.584;2023-07-31T13:53:27;27.80;41.70
81337;DHT22;70799;48.000;10.584;2023-07-31T13:56:01;27.80;42.20
81337;DHT22;70799;48.000;10.584;2023-07-31T13:58:36;27.80;43.40
81337;DHT22;70799;48.000;10.584;2023-07-31T14:01:19;28.00;43.80
81337;DHT22;70799;48.000;10.584;2023-07-31T14:03:52;28.50;43.60
81337;DHT22;70799;48.000;10.584;2023-07-31T14:06:28;29.00;42.80
81337;DHT22;70799;48.000;10.584;2023-07-31T14:09:02;29.40;41.10
81337;DHT22;70799;48.000;10.584;2023-07-31T14:11:36;29.50;39.50
81337;DHT22;70799;48.000;10.584;2023-07-31T14:14:19;29.40;38.70
81337;DHT22;70799;48.000;10.584;2023-07-31T14:16:54;29.30;40.00
81337;DHT22;70799;48.000;10.584;2023-07-31T14:19:27;29.40;39.50
81337;DHT22;70799;48.000;10.584;2023-07-31T14:22:02;29.60;38.90
81337;DHT22;70799;48.000;10.584;2023-07-31T14:24:45;29.30;37.90
81337;DHT22;70799;48.000;10.584;2023-07-31T14:27:25;29.00;39.90
81337;DHT22;70799;48.000;10.584;2023-07-31T14:30:03;28.70;37.70
81337;DHT22;70799;48.000;10.584;2023-07-31T14:32:39;28.50;40.10
81337;DHT22;70799;48.000;10.584;2023-07-31T14:35:13;28.30;39.80
81337;DHT22;70799;48.000;10.584;2023-07-31T14:37:47;28.00;40.50
81337;DHT22;70799;48.000;10.584;2023-07-31T14:40:20;27.70;40.10
81337;DHT22;70799;48.000;10.584;2023-07-31T14:42:54;27.40;41.40
81337;DHT22;70799;48.000;10.584;2023-07-31T14:45:28;27.20;42.10
81337;DHT22;70799;48.000;10.584;2023-07-31T14:48:02;27.10;42.10
81337;DHT22;70799;48.000;10.584;2023-07-31T14:50:40;27.00;42.50
81337;DHT22;70799;48.000;10.584;2023-07-31T14:53:16;27.10;43.10
81337;DHT22;70799;48.000;10.584;2023-07-31T14:55:49;27.00;43.70
81337;DHT22;70799;48.000;10.584;2023-07-31T14:58:22;27.10;44.00
81337;DHT22;70799;48.000;10.584;2023-07-31T15:01:09;27.10;44.10
81337;DHT22;70799;48.000;10.584;2023-07-31T15:03:48;27.00;44.50
81337;DHT22;70799;48.000;10.584;2023-07-31T15:06:22;27.00;43.40
81337;DHT22;70799;48.000;10.584;2023-07-31T15:08:57;26.90;43.10
81337;DHT22;70799;48.000;10.584;2023-07-31T15:11:32;26.70;43.60
81337;DHT22;70799;48.000;10.584;2023-07-31T15:14:10;26.60;43.50
81337;DHT22;70799;48.000;10.584;2023-07-31T15:16:48;26.50;43.70
81337;DHT22;70799;48.000;10.584;2023-07-31T15:19:22;26.40;44.10
81337;DHT22;70799;48.000;10.584;2023-07-31T15:21:56;26.40;43.90
81337;DHT22;70799;48.000;10.584;2023-07-31T15:24:29;26.40;44.10
81337;DHT22;70799;48.000;10.584;2023-07-31T15:27:03;26.40;44.40
81337;DHT22;70799;48.000;10.584;2023-07-31T15:29:37;26.50;43.60
81337;DHT22;70799;48.000;10.584;2023-07-31T15:32:16;26.50;41.90
81337;DHT22;70799;48.000;10.584;2023-07-31T15:34:51;26.40;43.00
81337;DHT22;70799;48.000;10.584;2023-07-31T15:37:27;26.50;42.60
81337;DHT22;70799;48.000;10.584;2023-07-31T15:40:09;26.70;43.50
81337;DHT22;70799;48.000;10.584;2023-07-31T15:42:52;26.70;43.60
81337;DHT22;70799;48.000;10.584;2023-07-31T15:45:26;26.80;43.50
81337;DHT22;70799;48.000;10.584;2023-07-31T15:48:02;26.80;43.20
81337;DHT22;70799;48.000;10.584;2023-07-31T15:50:35;26.80;44.50
81337;DHT22;70799;48.000;10.584;2023-07-31T15:53:09;26.90;44.80
81337;DHT22;70799;48.000;10.584;2023-07-31T15:55:42;27.00;43.70
81337;DHT22;70799;48.000;10.584;2023-07-31T15:58:17;26.90;44.00
81337;DHT22;70799;48.000;10.584;2023-07-31T16:00:51;26.90;43.70
81337;DHT22;70799;48.000;10.584;2023-07-31T16:03:30;26.80;43.30
81337;DHT22;70799;48.000;10.584;2023-07-31T16:06:03;26.60;44.10
81337;DHT22;70799;48.000;10.584;2023-07-31T16:08:38;26.50;45.10
81337;DHT22;70799;48.000;10.584;2023-07-31T16:11:13;26.40;45.50
81337;DHT22;70799;48.000;10.584;2023-07-31T16:13:49;26.30;46.30
81337;DHT22;70799;48.000;10.584;2023-07-31T16:16:23;26.30;47.00
81337;DHT22;70799;48.000;10.584;2023-07-31T16:18:59;26.30;47.00
81337;DHT22;70799;48.000;10.584;2023-07-31T16:21:43;26.20;47.30
81337;DHT22;70799;48.000;10.584;2023-07-31T16:24:18;26.30;47.10